Snow/Ice From: 24-10-2018 05:00 Until: 09:00 warning for: Snow/Ice Level: Yellow info button
suomi:
Liikennesää: Ajokeli muuttuu huonoksi aamulla tienpintojen jäätymisen vuoksi.

svenska:
Trafikvädret: Väglaget blir dåligt på morgonen p.g.a. tillfrysning av vägytor.

english:
Traffic weather warning: Bad road conditions are expected in the morning because of ice-covered roads. 


Thunder radar more information blitzortung!


Löydät sääaseman tiedot myös:

European Weather Network

Finland Weather Exchange

Weather Underground

AWEKAS



Weather Underground säähistoriasivu

Päivittäin yhteenveto Lokakuu 8, 2017 Yksiköt:  Englantilaiset    Metriset   Molemmat
« Edellinen Päivä
Seuraava Päivä »
Päivittäin Viikoittain Kuukausittain Vuosittain Mukautettu
  Korkea: Matala: Keskiarvo:
Lämpötila: TemperatureF °F 39.9 °F 42.7 °F
Kastepiste: DewpointF °F 39.2 °F 42.2 °F
Kosteus: Humidity % 97 % 97 %
Tuulen nopeus: WindSpeedMPH mph 0.0 mph 0 mph
Tuulenpuuska: WindSpeedGustMPH mph - -
Tuuli:- - North
Ilmanpaine: PressureIn in 29.48 in -
Sade: 0.00 in    
Historical Graphs
 
 
Taulukkotiedot Lokakuu 8, 2017
Aika Lämpötila Kastepiste Ilmanpaine Tuuli Tuulen nopeus Tuulenpuuska Kosteus Sademäärä (tunneittain)
TemperatureF °F DewpointF °F PressureIn in Calm     Humidity % HourlyPrecipIn in
00:00 39.9 °F 39.2 °F 29.48 in Calm     97 % 0.00 in
00:15 39.9 °F 39.2 °F 29.48 in Calm     97 % 0.00 in
00:30 40.1 °F 39.4 °F 29.48 in Calm     97 % 0.00 in
00:45 39.9 °F 39.2 °F 29.49 in Calm     97 % 0.00 in
01:00 40.1 °F 39.4 °F 29.49 in Calm     97 % 0.00 in
01:15 40.1 °F 39.4 °F 29.49 in Calm     97 % 0.00 in
01:30 40.1 °F 39.6 °F 29.49 in Calm     98 % 0.00 in
01:45 40.1 °F 39.6 °F 29.49 in Calm     98 % 0.00 in
02:00 40.3 °F 39.7 °F 29.49 in Calm     98 % 0.00 in
02:15 40.3 °F 39.7 °F 29.49 in Calm     98 % 0.00 in
02:30 40.3 °F 39.7 °F 29.49 in Calm     98 % 0.00 in
02:45 40.3 °F 39.7 °F 29.49 in Calm     98 % 0.00 in
03:00 40.5 °F 39.9 °F 29.49 in Calm     98 % 0.00 in
03:15 40.5 °F 39.9 °F 29.49 in Calm     98 % 0.00 in
03:30 40.5 °F 39.9 °F 29.49 in Calm     98 % 0.00 in
03:45 40.5 °F 39.9 °F 29.50 in Calm     98 % 0.00 in
04:00 40.6 °F 40.1 °F 29.50 in Calm     98 % 0.00 in
04:15 40.6 °F 40.1 °F 29.50 in Calm     98 % 0.00 in
04:30 40.6 °F 40.1 °F 29.50 in Calm     98 % 0.00 in
04:45 40.8 °F 40.3 °F 29.50 in Calm     98 % 0.00 in
05:00 41.2 °F 40.6 °F 29.51 in Calm     98 % 0.00 in
05:15 41.5 °F 41.0 °F 29.51 in Calm     98 % 0.00 in
05:30 41.7 °F 41.2 °F 29.51 in Calm     98 % 0.00 in
05:45 41.7 °F 41.4 °F 29.52 in Calm     98 % 0.00 in
06:00 41.7 °F 41.4 °F 29.52 in Calm     98 % 0.00 in
06:15 41.7 °F 41.4 °F 29.52 in Calm     98 % 0.00 in
06:30 41.7 °F 41.4 °F 29.53 in Calm     98 % 0.00 in
06:45 41.7 °F 41.4 °F 29.53 in Calm     98 % 0.00 in
07:00 41.7 °F 41.4 °F 29.54 in Calm     98 % 0.00 in
07:15 41.7 °F 41.4 °F 29.54 in Calm     98 % 0.00 in
07:30 41.7 °F 41.2 °F 29.54 in Calm     98 % 0.00 in
07:45 41.7 °F 41.2 °F 29.55 in Calm     98 % 0.00 in
08:00 41.5 °F 41.0 °F 29.55 in Calm     98 % 0.00 in
08:15 41.5 °F 41.0 °F 29.55 in Calm     98 % 0.00 in
08:30 41.5 °F 41.0 °F 29.56 in Calm     98 % 0.00 in
08:45 41.5 °F 41.0 °F 29.56 in Calm     98 % 0.00 in
09:00 41.5 °F 41.0 °F 29.56 in Calm     98 % 0.00 in
09:15 41.7 °F 41.2 °F 29.57 in Calm     98 % 0.00 in
09:45 42.1 °F 41.5 °F 29.58 in Calm     98 % 0.00 in
10:00 42.1 °F 41.5 °F 29.58 in Calm     98 % 0.00 in
10:15 42.3 °F 41.7 °F 29.58 in Calm     98 % 0.00 in
10:30 42.4 °F 41.9 °F 29.59 in Calm     98 % 0.00 in
10:45 42.6 °F 42.3 °F 29.59 in Calm     98 % 0.00 in
11:00 42.8 °F 42.3 °F 29.60 in Calm     98 % 0.00 in
11:15 43.0 °F 42.4 °F 29.60 in Calm     98 % 0.00 in
11:30 43.3 °F 42.8 °F 29.60 in Calm     98 % 0.00 in
11:45 44.1 °F 43.5 °F 29.61 in Calm     98 % 0.00 in
12:00 44.4 °F 44.1 °F 29.61 in Calm     99 % 0.00 in
12:15 44.8 °F 44.2 °F 29.62 in Calm     98 % 0.00 in
12:30 44.6 °F 44.1 °F 29.62 in Calm     98 % 0.00 in
12:45 44.4 °F 44.1 °F 29.63 in Calm     98 % 0.00 in
13:00 45.1 °F 44.6 °F 29.63 in Calm     98 % 0.00 in
13:15 45.1 °F 44.6 °F 29.63 in Calm     98 % 0.00 in
13:45 45.3 °F 44.8 °F 29.64 in Calm     98 % 0.00 in
14:00 45.3 °F 44.8 °F 29.64 in Calm     98 % 0.00 in
14:30 45.7 °F 45.1 °F 29.65 in Calm     98 % 0.00 in
14:45 45.7 °F 45.1 °F 29.65 in Calm     98 % 0.00 in
15:00 45.7 °F 45.1 °F 29.65 in Calm     98 % 0.00 in
15:15 45.9 °F 45.3 °F 29.65 in Calm     98 % 0.00 in
15:30 45.9 °F 45.3 °F 29.66 in Calm     98 % 0.00 in
15:45 45.7 °F 45.1 °F 29.66 in Calm     98 % 0.00 in
16:00 45.7 °F 45.1 °F 29.66 in Calm     98 % 0.00 in
16:15 45.7 °F 45.1 °F 29.67 in Calm     98 % 0.00 in
16:30 45.3 °F 44.8 °F 29.67 in Calm     98 % 0.00 in
16:45 45.3 °F 44.8 °F 29.67 in Calm     98 % 0.00 in
17:00 45.3 °F 44.8 °F 29.68 in Calm     98 % 0.00 in
17:15 45.3 °F 44.8 °F 29.68 in Calm     98 % 0.00 in
17:30 45.3 °F 44.8 °F 29.68 in Calm     98 % 0.00 in
17:45 45.1 °F 44.6 °F 29.69 in Calm     98 % 0.00 in
18:00 45.1 °F 44.6 °F 29.69 in Calm     98 % 0.00 in
18:15 45.0 °F 44.4 °F 29.69 in Calm     98 % 0.00 in
18:30 45.0 °F 44.4 °F 29.70 in Calm     98 % 0.00 in
18:45 44.8 °F 44.2 °F 29.70 in Calm     98 % 0.00 in
19:00 44.8 °F 44.2 °F 29.71 in Calm     98 % 0.00 in
19:15 44.8 °F 44.2 °F 29.71 in Calm     98 % 0.00 in
19:30 44.8 °F 44.2 °F 29.71 in Calm     98 % 0.00 in
19:45 44.8 °F 44.2 °F 29.71 in Calm     98 % 0.00 in
20:00 44.8 °F 44.2 °F 29.72 in Calm     98 % 0.00 in
20:15 44.8 °F 44.2 °F 29.72 in Calm     98 % 0.00 in
20:30 44.8 °F 44.2 °F 29.72 in Calm     98 % 0.00 in
20:45 44.8 °F 44.2 °F 29.72 in Calm     98 % 0.00 in
21:00 44.8 °F 44.2 °F 29.73 in Calm     98 % 0.00 in
21:15 45.0 °F 44.4 °F 29.73 in Calm     98 % 0.00 in
21:30 45.0 °F 44.4 °F 29.73 in Calm     98 % 0.00 in
21:45 45.0 °F 44.4 °F 29.74 in Calm     98 % 0.00 in
22:00 45.0 °F 44.4 °F 29.74 in Calm     98 % 0.00 in
22:15 45.0 °F 44.4 °F 29.74 in Calm     98 % 0.00 in
22:30 45.0 °F 44.4 °F 29.75 in Calm     98 % 0.00 in
22:45 45.0 °F 44.4 °F 29.75 in Calm     98 % 0.00 in
23:00 44.8 °F 44.2 °F 29.75 in Calm     98 % 0.00 in
23:15 44.8 °F 44.2 °F 29.76 in Calm     98 % 0.00 in
23:30 44.8 °F 44.2 °F 29.76 in Calm     98 % 0.00 in
23:45 44.8 °F 44.2 °F 29.76 in Calm     98 % 0.00 in
Esan sääasema
Terveisin Weather Underground - 2.75 mb

Alkuperäinen skripti  Jim McMurry - jmcmurry@mwt.net Sovitettu myös templatelle  Wim van der Kuil - Leuven-Template.eu

Laitteet joita käytämme:

Sääasema
Davis VP2

Sääasemaohjelma
Cumulus

Sääaseman tietokone
Asus EeePC

Palveluntarjoaja
Suncomet

Davis VP2

Cumulus

Asus EeePC

Suncomet